createdAt,value
2018-06-22T03:37:42.423Z,23.9
2018-06-22T03:38:32.241Z,24
2018-06-22T03:39:21.748Z,24
2018-06-22T03:40:11.519Z,23.9
2018-06-22T03:41:02.163Z,23.9
2018-06-22T03:41:52.733Z,23.9
2018-06-22T03:42:42.546Z,23.9
2018-06-22T03:43:32.573Z,23.9
2018-06-22T03:44:22.063Z,23.9
2018-06-22T03:45:12.687Z,23.9
2018-06-22T03:46:03.088Z,23.9
2018-06-22T03:46:52.595Z,23.9
2018-06-22T03:47:42.898Z,23.9
2018-06-22T03:48:32.445Z,23.9
2018-06-22T03:49:23.305Z,23.9
2018-06-22T03:50:12.548Z,23.9
2018-06-22T03:51:02.597Z,23.9
2018-06-22T03:51:52.955Z,23.9
2018-06-22T03:52:43.539Z,23.9
2018-06-22T03:53:33.372Z,23.9
2018-06-22T03:54:23.126Z,23.9
2018-06-22T03:55:14.029Z,23.9
2018-06-22T03:56:02.967Z,23.9
2018-06-22T03:56:54.650Z,23.9
2018-06-22T03:57:42.824Z,23.9
2018-06-22T03:58:33.485Z,23.9
2018-06-22T03:59:23.763Z,23.9
2018-06-22T04:00:14.158Z,23.9
2018-06-22T04:01:03.917Z,23.9
2018-06-22T04:01:53.745Z,23.9
2018-06-22T04:02:44.374Z,23.9
2018-06-22T04:03:33.352Z,23.9
2018-06-22T04:04:24.437Z,23.9
2018-06-22T04:05:13.684Z,23.9
2018-06-22T04:06:04.580Z,23.9
2018-06-22T04:06:54.361Z,23.9
2018-06-22T04:07:45.016Z,23.9
2018-06-22T04:08:34.515Z,23.9
2018-06-22T04:09:24.351Z,23.9
2018-06-22T04:10:14.131Z,23.9
2018-06-22T04:11:04.219Z,23.9
2018-06-22T04:11:54.242Z,23.9
2018-06-22T04:12:44.213Z,23.9
2018-06-22T04:13:34.869Z,23.9
2018-06-22T04:14:23.994Z,23.9
2018-06-22T04:15:15.064Z,23.9
2018-06-22T04:16:04.858Z,23.9
2018-06-22T04:16:54.183Z,23.9
2018-06-22T04:17:44.528Z,23.9
2018-06-22T04:18:34.279Z,23.9
2018-06-22T04:19:25.117Z,23.9
2018-06-22T04:20:14.213Z,23.9
2018-06-22T04:21:04.685Z,23.9
2018-06-22T04:21:55.009Z,23.9
2018-06-22T04:22:45.125Z,23.9
2018-06-22T04:23:34.865Z,23.9
2018-06-22T04:24:25.593Z,23.9
2018-06-22T04:25:15.800Z,23.9
2018-06-22T04:26:06.145Z,23.9
2018-06-22T04:26:55.636Z,23.9
2018-06-22T04:27:46.500Z,23.9
2018-06-22T04:28:36.564Z,23.9
2018-06-22T04:29:26.365Z,23.9
2018-06-22T04:30:15.615Z,23.9
2018-06-22T04:31:06.281Z,23.9
2018-06-22T04:31:56.833Z,24
2018-06-22T04:32:46.329Z,23.9
2018-06-22T04:33:37.009Z,24
2018-06-22T04:34:25.953Z,24
2018-06-22T04:35:15.502Z,24
2018-06-22T04:36:06.929Z,24
2018-06-22T04:36:57.227Z,24
2018-06-22T04:37:47.288Z,24
2018-06-22T04:38:37.596Z,24
2018-06-22T04:39:27.106Z,24
2018-06-22T04:40:16.921Z,24
2018-06-22T04:41:06.747Z,24.1
2018-06-22T04:41:57.351Z,24
2018-06-22T04:42:46.247Z,24.1
2018-06-22T04:43:37.174Z,24
2018-06-22T04:44:27.257Z,24.1
2018-06-22T04:45:17.565Z,24.1
2018-06-22T04:46:07.696Z,24.1
2018-06-22T04:46:57.419Z,24.1
2018-06-22T04:47:48.404Z,24.1
2018-06-22T04:48:37.329Z,24.1
2018-06-22T04:49:27.620Z,24.1
2018-06-22T04:50:18.086Z,24.1
2018-06-22T04:51:07.537Z,24.1
2018-06-22T04:51:58.225Z,24.1
2018-06-22T04:52:47.505Z,24.1
2018-06-22T04:53:38.004Z,24.1
2018-06-22T04:54:28.376Z,24.1
2018-06-22T04:55:18.620Z,24.1
2018-06-22T04:56:08.623Z,24.1
2018-06-22T04:56:58.445Z,24.1
2018-06-22T04:57:48.533Z,24.1
2018-06-22T04:58:38.838Z,24.1
2018-06-22T04:59:28.662Z,24.1
2018-06-22T05:00:18.785Z,24.1
2018-06-22T05:01:09.127Z,24.1
2018-06-22T05:01:58.845Z,24.1
2018-06-22T05:02:48.435Z,24.1
2018-06-22T05:03:39.947Z,24.1
2018-06-22T05:04:28.799Z,24.2
2018-06-22T05:05:19.472Z,24.1
2018-06-22T05:06:09.489Z,24.1
2018-06-22T05:06:58.787Z,24.2
2018-06-22T05:07:49.066Z,24.2
2018-06-22T05:08:39.677Z,24.1
2018-06-22T05:09:29.745Z,24.2
2018-06-22T05:10:19.293Z,24.2
2018-06-22T05:11:09.019Z,24.2
2018-06-22T05:11:59.377Z,24.2
2018-06-22T05:12:49.761Z,24.2
2018-06-22T05:13:39.777Z,24.2
2018-06-22T05:14:29.833Z,24.2
2018-06-22T05:15:19.392Z,24.2
2018-06-22T05:16:09.725Z,24.2
2018-06-22T05:16:58.937Z,24.2
2018-06-22T05:17:49.568Z,24.2
2018-06-22T05:18:40.142Z,24.2
2018-06-22T05:19:30.512Z,24.2
2018-06-22T05:20:20.340Z,24.2
2018-06-22T05:21:10.145Z,24.2
2018-06-22T05:22:00.693Z,24.2
2018-06-22T05:22:51.163Z,24.2
2018-06-22T05:23:40.293Z,24.3
2018-06-22T05:24:30.944Z,24.3
2018-06-22T05:25:20.821Z,24.3
2018-06-22T05:26:10.761Z,24.3
2018-06-22T05:27:00.215Z,24.3
2018-06-22T05:27:50.703Z,24.3
2018-06-22T05:28:40.722Z,24.3
2018-06-22T05:29:30.431Z,24.3
2018-06-22T05:30:21.051Z,24.3
2018-06-22T05:31:11.184Z,24.3
2018-06-22T05:32:01.183Z,24.3
2018-06-22T05:32:51.520Z,24.3
2018-06-22T05:33:41.361Z,24.3
2018-06-22T05:34:31.334Z,24.3
2018-06-22T05:35:21.447Z,24.3
2018-06-22T05:36:11.401Z,24.3
2018-06-22T05:37:01.921Z,24.3
2018-06-22T05:37:50.524Z,24.3
2018-06-22T05:38:41.724Z,24.3
2018-06-22T05:39:31.564Z,24.3
2018-06-22T05:40:22.161Z,24.3
2018-06-22T05:41:11.915Z,24.3
2018-06-22T05:42:01.682Z,24.3
2018-06-22T05:42:52.329Z,24.3
2018-06-22T05:43:40.971Z,24.3
2018-06-22T05:44:31.362Z,24.3
2018-06-22T05:45:21.962Z,24.3
2018-06-22T05:46:11.209Z,24.3
2018-06-22T05:47:02.642Z,24.3
2018-06-22T05:47:52.412Z,24.3
2018-06-22T05:48:41.644Z,24.3
2018-06-22T05:49:31.834Z,24.3
2018-06-22T05:50:22.895Z,24.3
2018-06-22T05:51:12.165Z,24.3
2018-06-22T05:52:02.498Z,24.3
2018-06-22T05:52:52.256Z,24.3
2018-06-22T05:53:42.631Z,24.3
2018-06-22T05:54:31.903Z,24.3
2018-06-22T05:55:22.481Z,24.3
2018-06-22T05:56:13.085Z,24.3
2018-06-22T05:57:03.409Z,24.3
2018-06-22T05:57:53.154Z,24.3
2018-06-22T05:58:43.261Z,24.3
2018-06-22T05:59:32.486Z,24.3
2018-06-22T06:00:22.833Z,24.4
2018-06-22T06:01:13.146Z,24.4
2018-06-22T06:02:03.312Z,24.4
2018-06-22T06:02:53.844Z,24.4
2018-06-22T06:03:43.956Z,24.4
2018-06-22T06:04:33.193Z,24.4
2018-06-22T06:05:23.766Z,24.4
2018-06-22T06:06:13.817Z,24.4
2018-06-22T06:07:04.191Z,24.4
2018-06-22T06:07:53.942Z,24.4
2018-06-22T06:08:44.073Z,24.4
2018-06-22T06:09:34.351Z,24.4
2018-06-22T06:10:24.230Z,24.4
2018-06-22T06:11:14.818Z,24.4
2018-06-22T06:12:04.571Z,24.4
2018-06-22T06:12:54.604Z,24.4
2018-06-22T06:13:44.415Z,24.4
2018-06-22T06:14:33.705Z,24.4
2018-06-22T06:15:24.775Z,24.4
2018-06-22T06:16:14.564Z,24.4
2018-06-22T06:17:04.770Z,24.4
2018-06-22T06:17:54.410Z,24.4
2018-06-22T06:18:44.983Z,24.4
2018-06-22T06:19:34.016Z,24.4
2018-06-22T06:20:23.873Z,24.4
2018-06-22T06:21:14.700Z,24.4
2018-06-22T06:22:04.454Z,24.4
2018-06-22T06:22:55.126Z,24.4
2018-06-22T06:23:44.909Z,24.4
2018-06-22T06:24:35.235Z,24.4
2018-06-22T06:25:24.745Z,24.5
2018-06-22T06:26:14.504Z,24.5
2018-06-22T06:27:05.415Z,24.5
2018-06-22T06:27:55.806Z,24.5
2018-06-22T06:28:44.450Z,24.5
2018-06-22T06:29:35.868Z,24.5
2018-06-22T06:30:25.955Z,24.5
2018-06-22T06:31:15.465Z,24.5
2018-06-22T06:32:05.600Z,24.5
2018-06-22T06:32:55.342Z,24.5
2018-06-22T06:33:45.659Z,24.5
2018-06-22T06:34:35.820Z,24.5
2018-06-22T06:35:26.116Z,24.5
2018-06-22T06:36:16.127Z,24.5
2018-06-22T06:37:05.924Z,24.5
2018-06-22T06:37:55.738Z,24.5
2018-06-22T06:38:46.570Z,24.5
2018-06-22T06:39:36.460Z,24.6
2018-06-22T06:40:26.804Z,24.5
2018-06-22T06:41:15.976Z,24.5
2018-06-22T06:42:05.392Z,24.6
2018-06-22T06:42:56.095Z,24.6
2018-06-22T06:43:45.872Z,24.5
2018-06-22T06:44:37.070Z,24.6
2018-06-22T06:45:26.578Z,24.6
2018-06-22T06:46:16.660Z,24.6
2018-06-22T06:47:06.406Z,24.6
2018-06-22T06:47:57.070Z,24.6
2018-06-22T06:48:46.555Z,24.6
2018-06-22T06:49:37.593Z,24.6
2018-06-22T06:50:27.220Z,24.6
2018-06-22T06:51:17.351Z,24.6
2018-06-22T06:52:07.323Z,24.6
2018-06-22T06:52:57.399Z,24.6
2018-06-22T06:53:47.203Z,24.6
2018-06-22T06:54:37.003Z,24.6
2018-06-22T06:55:27.131Z,24.6
2018-06-22T06:56:17.996Z,24.6
2018-06-22T06:57:07.219Z,24.6
2018-06-22T06:57:57.588Z,24.6
2018-06-22T06:58:48.152Z,24.6
2018-06-22T06:59:38.276Z,24.6
2018-06-22T07:00:27.716Z,24.6
2018-06-22T07:01:18.105Z,24.6
2018-06-22T07:02:08.151Z,24.6
2018-06-22T07:02:57.631Z,24.6
2018-06-22T07:03:47.736Z,24.6
2018-06-22T07:04:38.333Z,24.6
2018-06-22T07:05:28.419Z,24.6
2018-06-22T07:06:18.285Z,24.6
2018-06-22T07:07:08.833Z,24.6
2018-06-22T07:07:58.635Z,24.6
2018-06-22T07:08:48.647Z,24.6
2018-06-22T07:09:38.985Z,24.6
2018-06-22T07:10:28.221Z,24.6
2018-06-22T07:11:18.618Z,24.5
2018-06-22T07:12:08.647Z,24.5
2018-06-22T07:12:58.990Z,24.4
2018-06-22T07:13:48.783Z,24.4
2018-06-22T07:14:39.142Z,24.4
2018-06-22T07:15:29.192Z,24.4
2018-06-22T07:16:18.957Z,24.3
2018-06-22T07:17:09.080Z,24.3
2018-06-22T07:17:59.674Z,24.3
2018-06-22T07:18:49.802Z,24.4
2018-06-22T07:19:39.012Z,24.3
2018-06-22T07:20:29.299Z,24.3
2018-06-22T07:21:19.915Z,24.3
2018-06-22T07:22:09.152Z,24.3
2018-06-22T07:22:59.467Z,24.3
2018-06-22T07:23:50.125Z,24.4
2018-06-22T07:24:39.939Z,24.4
2018-06-22T07:25:29.121Z,24.4
2018-06-22T07:26:19.133Z,24.4
2018-06-22T07:27:09.334Z,24.4
2018-06-22T07:27:59.853Z,24.4
2018-06-22T07:28:50.209Z,24.4
2018-06-22T07:29:40.050Z,24.4
2018-06-22T07:30:30.073Z,24.4
2018-06-22T07:31:20.523Z,24.4
2018-06-22T07:32:10.803Z,24.4
2018-06-22T07:32:59.677Z,24.4
2018-06-22T07:33:50.595Z,24.5
2018-06-22T07:34:40.402Z,24.5
2018-06-22T07:35:30.823Z,24.5
2018-06-22T07:36:20.874Z,24.5
2018-06-22T07:37:10.611Z,24.5
2018-06-22T07:38:00.646Z,24.5
2018-06-22T07:38:51.281Z,24.5
2018-06-22T07:39:39.924Z,24.5
2018-06-22T07:40:31.421Z,24.6
2018-06-22T07:41:20.439Z,24.5
2018-06-22T07:42:11.505Z,24.6
2018-06-22T07:43:01.081Z,24.6
2018-06-22T07:43:51.002Z,24.6
2018-06-22T07:44:41.142Z,24.6
2018-06-22T07:45:30.479Z,24.6
2018-06-22T07:46:21.290Z,24.6
2018-06-22T07:47:11.651Z,24.6
2018-06-22T07:48:01.686Z,24.6
2018-06-22T07:48:51.466Z,24.6
2018-06-22T07:49:41.412Z,24.6
2018-06-22T07:50:31.613Z,24.6
2018-06-22T07:51:21.392Z,24.6
2018-06-22T07:52:12.041Z,24.6
2018-06-22T07:53:02.104Z,24.6
2018-06-22T07:53:52.168Z,24.6
2018-06-22T07:54:41.922Z,24.6
2018-06-22T07:55:31.710Z,24.6
2018-06-22T07:56:22.324Z,24.6
2018-06-22T07:57:12.670Z,24.6
2018-06-22T07:58:03.199Z,24.6
2018-06-22T07:58:52.847Z,24.6
2018-06-22T07:59:42.904Z,24.7
2018-06-22T08:00:32.979Z,24.6
2018-06-22T08:01:23.012Z,24.6
2018-06-22T08:02:13.041Z,24.7
2018-06-22T08:03:02.352Z,24.7
2018-06-22T08:03:52.669Z,24.7
2018-06-22T08:04:43.246Z,24.7
2018-06-22T08:05:33.009Z,24.7
2018-06-22T08:06:24.240Z,24.7
2018-06-22T08:07:13.430Z,24.7
2018-06-22T08:08:03.533Z,24.7
2018-06-22T08:08:53.586Z,24.7
2018-06-22T08:09:43.452Z,24.7
2018-06-22T08:10:33.704Z,24.7
2018-06-22T08:11:23.472Z,24.7
2018-06-22T08:12:13.314Z,24.8
2018-06-22T08:13:03.649Z,24.8
2018-06-22T08:13:53.415Z,24.8
2018-06-22T08:14:43.757Z,24.7
2018-06-22T08:15:33.273Z,24.7
2018-06-22T08:16:24.142Z,24.8
2018-06-22T08:17:13.921Z,24.7
2018-06-22T08:18:04.006Z,24.8
2018-06-22T08:18:54.145Z,24.8
2018-06-22T08:19:43.821Z,24.8
2018-06-22T08:20:34.205Z,24.8
2018-06-22T08:21:23.754Z,24.8
2018-06-22T08:22:14.062Z,24.8
2018-06-22T08:23:04.206Z,24.8
2018-06-22T08:23:54.482Z,24.8
2018-06-22T08:24:44.106Z,24.8
2018-06-22T08:25:34.631Z,24.8
2018-06-22T08:26:23.979Z,24.8
2018-06-22T08:27:14.741Z,24.8
2018-06-22T08:28:05.130Z,24.8
2018-06-22T08:28:54.323Z,24.8
2018-06-22T08:29:44.370Z,24.8
2018-06-22T08:30:35.235Z,24.8
2018-06-22T08:31:25.337Z,24.8
2018-06-22T08:32:14.572Z,24.8
2018-06-22T08:33:05.207Z,24.8
2018-06-22T08:33:54.513Z,24.8
2018-06-22T08:34:45.104Z,24.8
2018-06-22T08:35:35.378Z,24.8
2018-06-22T08:36:25.465Z,24.8
2018-06-22T08:37:14.957Z,24.8
2018-06-22T08:38:05.105Z,24.8
2018-06-22T08:38:55.095Z,24.8
2018-06-22T08:39:45.446Z,24.8
2018-06-22T08:40:35.780Z,24.8
2018-06-22T08:41:25.920Z,24.8
2018-06-22T08:42:16.952Z,24.8
2018-06-22T08:43:05.432Z,24.8
2018-06-22T08:43:56.007Z,24.8
2018-06-22T08:44:46.335Z,24.8
2018-06-22T08:45:36.140Z,24.8
2018-06-22T08:46:25.689Z,24.8
2018-06-22T08:47:16.301Z,24.8
2018-06-22T08:48:06.706Z,24.8
2018-06-22T08:48:57.085Z,24.8
2018-06-22T08:49:46.064Z,24.8
2018-06-22T08:50:36.253Z,24.8
2018-06-22T08:51:26.379Z,24.8
2018-06-22T08:52:16.195Z,24.8
2018-06-22T08:53:05.909Z,24.8
2018-06-22T08:53:56.834Z,24.8
2018-06-22T08:54:46.855Z,24.8
2018-06-22T08:55:36.367Z,24.8
2018-06-22T08:56:27.039Z,24.8
2018-06-22T08:57:16.599Z,24.8
2018-06-22T08:58:06.923Z,24.8
2018-06-22T08:58:57.199Z,24.8
2018-06-22T08:59:46.803Z,24.8
2018-06-22T09:00:37.360Z,24.8
2018-06-22T09:01:28.599Z,24.8
2018-06-22T09:02:16.947Z,24.8
2018-06-22T09:03:07.647Z,24.8
2018-06-22T09:03:57.846Z,24.8
2018-06-22T09:04:47.719Z,24.8
2018-06-22T09:05:38.003Z,24.8
2018-06-22T09:06:27.216Z,24.8
2018-06-22T09:07:17.334Z,24.8
2018-06-22T09:08:07.950Z,24.8
2018-06-22T09:08:57.751Z,24.8
2018-06-22T09:09:47.218Z,24.8
2018-06-22T09:10:38.079Z,24.8
2018-06-22T09:11:27.881Z,24.8
2018-06-22T09:12:18.229Z,24.8
2018-06-22T09:13:08.311Z,24.8
2018-06-22T09:13:58.382Z,24.8
2018-06-22T09:14:48.150Z,24.8
2018-06-22T09:15:38.769Z,24.9
2018-06-22T09:16:28.022Z,24.9
2018-06-22T09:17:18.647Z,24.9
2018-06-22T09:18:08.160Z,24.9
2018-06-22T09:18:58.486Z,24.9
2018-06-22T09:19:48.587Z,24.9
2018-06-22T09:20:38.626Z,24.9
2018-06-22T09:21:28.681Z,24.9
2018-06-22T09:22:18.731Z,24.9
2018-06-22T09:23:08.828Z,24.9
2018-06-22T09:23:59.109Z,24.9
2018-06-22T09:24:48.358Z,24.9
2018-06-22T09:25:38.975Z,24.9
2018-06-22T09:26:28.840Z,24.9
2018-06-22T09:27:19.397Z,24.9
2018-06-22T09:28:09.192Z,24.9
2018-06-22T09:28:59.603Z,24.9
2018-06-22T09:29:49.383Z,24.9
2018-06-22T09:30:39.451Z,24.9
2018-06-22T09:31:30.405Z,24.9
2018-06-22T09:32:19.565Z,24.9
2018-06-22T09:33:09.966Z,24.9
2018-06-22T09:33:59.463Z,24.9
2018-06-22T09:34:50.061Z,24.9
2018-06-22T09:35:40.129Z,24.9
2018-06-22T09:36:30.201Z,24.9
2018-06-22T09:37:20.543Z,24.9
2018-06-22T09:38:08.960Z,24.9
2018-06-22T09:39:00.113Z,24.9
2018-06-22T09:39:50.698Z,24.9
2018-06-22T09:40:40.793Z,24.9
2018-06-22T09:41:30.604Z,24.9
2018-06-22T09:42:20.932Z,24.9
2018-06-22T09:43:10.708Z,24.9
2018-06-22T09:44:00.200Z,24.9
2018-06-22T09:44:50.845Z,24.9
2018-06-22T09:45:40.956Z,24.9
2018-06-22T09:46:29.908Z,24.9
2018-06-22T09:47:20.736Z,24.9
2018-06-22T09:48:09.763Z,24.9
2018-06-22T09:49:00.609Z,24.9
2018-06-22T09:49:50.653Z,24.9
2018-06-22T09:50:40.706Z,24.9
2018-06-22T09:51:30.564Z,24.9
2018-06-22T09:52:21.214Z,25
2018-06-22T09:53:11.988Z,25
2018-06-22T09:54:01.240Z,25
2018-06-22T09:54:51.294Z,25
2018-06-22T09:55:41.104Z,25
2018-06-22T09:56:31.721Z,25
2018-06-22T09:57:21.787Z,25
2018-06-22T09:58:11.646Z,25
2018-06-22T09:59:00.815Z,25
2018-06-22T09:59:50.955Z,25
2018-06-22T10:00:41.200Z,25
2018-06-22T10:01:31.367Z,25
2018-06-22T10:02:22.158Z,25
2018-06-22T10:03:11.776Z,25
2018-06-22T10:04:02.076Z,25
2018-06-22T10:04:53.415Z,25
2018-06-22T10:05:41.353Z,25
2018-06-22T10:06:32.256Z,25
2018-06-22T10:07:22.541Z,25
2018-06-22T10:08:13.001Z,25
2018-06-22T10:09:02.523Z,25
2018-06-22T10:09:52.720Z,25
2018-06-22T10:10:43.047Z,25.1
2018-06-22T10:11:34.439Z,25.1
2018-06-22T10:12:22.323Z,25.1
2018-06-22T10:13:13.227Z,25.1
2018-06-22T10:14:03.048Z,25.1
2018-06-22T10:14:53.415Z,25.1
2018-06-22T10:15:43.458Z,25.1
2018-06-22T10:16:33.561Z,25.1
2018-06-22T10:17:23.080Z,25.1
2018-06-22T10:18:13.624Z,25.1
2018-06-22T10:19:03.260Z,25.1
2018-06-22T10:19:53.230Z,25.1
2018-06-22T10:20:43.619Z,25.1
2018-06-22T10:21:33.939Z,25.1
2018-06-22T10:22:22.652Z,25.1
2018-06-22T10:23:13.487Z,25.1
2018-06-22T10:24:03.035Z,25.1
2018-06-22T10:24:53.348Z,25.1
2018-06-22T10:25:43.713Z,25.1
2018-06-22T10:26:34.088Z,25.1
2018-06-22T10:27:24.574Z,25.1
2018-06-22T10:28:14.487Z,25.1
2018-06-22T10:29:03.705Z,25.1
2018-06-22T10:29:54.581Z,25.1
2018-06-22T10:30:44.094Z,25.1
2018-06-22T10:31:34.503Z,25.1
2018-06-22T10:32:24.765Z,25.1
2018-06-22T10:33:13.945Z,25.1
2018-06-22T10:34:05.661Z,25.1
2018-06-22T10:34:54.087Z,25.1
2018-06-22T10:35:44.494Z,25.1
2018-06-22T10:36:34.522Z,25.1
2018-06-22T10:37:24.902Z,25.1
2018-06-22T10:38:14.960Z,25.1
2018-06-22T10:39:04.693Z,25.1
2018-06-22T10:39:55.080Z,25.1
2018-06-22T10:40:45.454Z,25.1
2018-06-22T10:41:35.495Z,25.1
2018-06-22T10:42:24.764Z,25.1
2018-06-22T10:43:15.357Z,25.1
2018-06-22T10:44:05.410Z,25.2
2018-06-22T10:44:55.778Z,25.2
2018-06-22T10:45:46.293Z,25.1
2018-06-22T10:46:35.612Z,25.1
2018-06-22T10:47:25.660Z,25.1
2018-06-22T10:48:15.470Z,25.1
2018-06-22T10:49:06.092Z,25.2
2018-06-22T10:49:55.315Z,25.2
2018-06-22T10:50:45.996Z,25.2
2018-06-22T10:51:36.870Z,25.2
2018-06-22T10:52:24.923Z,25.2
2018-06-22T10:53:15.834Z,25.2
2018-06-22T10:54:05.355Z,25.1
2018-06-22T10:54:55.953Z,25.2
2018-06-22T10:55:45.749Z,25.2
2018-06-22T10:56:36.399Z,25.2
2018-06-22T10:57:26.496Z,25.2
2018-06-22T10:58:15.493Z,25.2
2018-06-22T10:59:06.838Z,25.2
2018-06-22T10:59:57.182Z,25.1
2018-06-22T11:00:46.993Z,25.2
2018-06-22T11:01:35.721Z,25.2
2018-06-22T11:02:27.095Z,25.2
2018-06-22T11:03:16.900Z,25.2
2018-06-22T11:04:07.205Z,25.2
2018-06-22T11:04:56.743Z,25.2
2018-06-22T11:05:47.732Z,25.2
2018-06-22T11:06:37.395Z,25.2
2018-06-22T11:07:26.469Z,25.2
2018-06-22T11:08:17.244Z,25.2
2018-06-22T11:09:07.635Z,25.2
2018-06-22T11:09:56.718Z,25.2
2018-06-22T11:10:47.203Z,25.2
2018-06-22T11:11:37.534Z,25.2
2018-06-22T11:12:27.366Z,25.2
2018-06-22T11:13:17.106Z,25.2
2018-06-22T11:14:08.769Z,25.2
2018-06-22T11:14:58.145Z,25.2
2018-06-22T11:15:48.237Z,25.2
2018-06-22T11:16:38.060Z,25.2
2018-06-22T11:17:27.823Z,25.2
2018-06-22T11:18:18.556Z,25.2
2018-06-22T11:19:08.507Z,25.2
2018-06-22T11:19:57.643Z,25.2
2018-06-22T11:20:48.548Z,25.1
2018-06-22T11:21:37.791Z,25.1
2018-06-22T11:22:28.114Z,25.1
2018-06-22T11:23:17.633Z,25.1
2018-06-22T11:24:08.838Z,25.1
2018-06-22T11:24:58.685Z,25.1
2018-06-22T11:25:48.461Z,25.1
2018-06-22T11:26:38.225Z,25.1
2018-06-22T11:27:28.838Z,25.1
2018-06-22T11:28:19.200Z,25.1
2018-06-22T11:29:08.430Z,25.1
2018-06-22T11:29:59.319Z,25.1
2018-06-22T11:30:49.273Z,25.1
2018-06-22T11:31:37.995Z,25.1
2018-06-22T11:32:29.158Z,25.1
2018-06-22T11:33:19.247Z,25.1
2018-06-22T11:34:09.678Z,25.1
2018-06-22T11:34:59.075Z,25.1
2018-06-22T11:35:50.675Z,25.1
2018-06-22T11:36:39.539Z,25.1
2018-06-22T11:37:29.850Z,25.1
2018-06-22T11:38:19.900Z,25.1
2018-06-22T11:39:09.683Z,25
2018-06-22T11:40:00.025Z,25.1
2018-06-22T11:40:49.811Z,25.1
2018-06-22T11:41:40.169Z,25.1
2018-06-22T11:42:29.949Z,25.1
2018-06-22T11:43:19.442Z,25.1
2018-06-22T11:44:10.120Z,25.1
2018-06-22T11:45:00.159Z,25.1
2018-06-22T11:45:50.474Z,25.1
2018-06-22T11:46:40.033Z,25.1
2018-06-22T11:47:29.849Z,25.1
2018-06-22T11:48:20.670Z,25.1
2018-06-22T11:49:10.462Z,25.1
2018-06-22T11:50:00.822Z,25.1
2018-06-22T11:50:50.374Z,25.1
2018-06-22T11:51:39.848Z,25.1
2018-06-22T11:52:30.448Z,25.1
2018-06-22T11:53:20.483Z,25.1
2018-06-22T11:54:09.436Z,25
2018-06-22T11:55:01.191Z,25.1
2018-06-22T11:55:51.015Z,25.1
2018-06-22T11:56:40.783Z,25.1
2018-06-22T11:57:30.576Z,25.1
2018-06-22T11:58:21.154Z,25.1
2018-06-22T11:59:12.697Z,25
2018-06-22T12:00:01.575Z,25.1
2018-06-22T12:00:51.677Z,25
2018-06-22T12:01:41.997Z,25.1
2018-06-22T12:02:31.467Z,25
2018-06-22T12:03:21.555Z,25.1
2018-06-22T12:04:11.730Z,25.1
2018-06-22T12:05:01.980Z,25.1
2018-06-22T12:05:51.778Z,25.1
2018-06-22T12:06:42.123Z,25
2018-06-22T12:07:32.205Z,25
2018-06-22T12:08:21.943Z,25.1
2018-06-22T12:09:11.185Z,25
2018-06-22T12:10:01.530Z,25
2018-06-22T12:10:51.868Z,25.1
2018-06-22T12:11:41.979Z,25.1
2018-06-22T12:12:31.997Z,25
2018-06-22T12:13:22.104Z,25.1
2018-06-22T12:14:12.745Z,25
2018-06-22T12:15:02.315Z,25.1
2018-06-22T12:15:51.107Z,25
2018-06-22T12:16:42.311Z,25
2018-06-22T12:17:32.937Z,25
2018-06-22T12:18:22.724Z,25.1
2018-06-22T12:19:13.476Z,25
2018-06-22T12:20:02.867Z,25
2018-06-22T12:20:53.204Z,25
2018-06-22T12:21:42.721Z,25
2018-06-22T12:22:33.079Z,25
2018-06-22T12:23:22.553Z,25
2018-06-22T12:24:13.446Z,25
2018-06-22T12:25:03.215Z,25
2018-06-22T12:25:53.298Z,25
2018-06-22T12:26:43.066Z,25
2018-06-22T12:27:33.464Z,25
2018-06-22T12:28:23.776Z,25
2018-06-22T12:29:12.998Z,25
2018-06-22T12:30:04.005Z,25
2018-06-22T12:30:54.078Z,25
2018-06-22T12:31:43.213Z,25
2018-06-22T12:32:33.833Z,25.1
2018-06-22T12:33:23.736Z,25
2018-06-22T12:34:13.750Z,25.1
2018-06-22T12:35:03.484Z,25.1
2018-06-22T12:35:53.826Z,25
2018-06-22T12:36:44.132Z,25.1
2018-06-22T12:37:34.232Z,25.1
2018-06-22T12:38:24.321Z,25.1
2018-06-22T12:39:14.345Z,25.1
2018-06-22T12:40:04.426Z,25.1
2018-06-22T12:40:54.801Z,25.1
2018-06-22T12:41:44.546Z,25.1
2018-06-22T12:42:34.897Z,25.1
2018-06-22T12:43:24.487Z,25.1
2018-06-22T12:44:14.733Z,25
2018-06-22T12:45:05.634Z,25
2018-06-22T12:45:54.886Z,25
2018-06-22T12:46:45.010Z,25
2018-06-22T12:47:35.266Z,25
2018-06-22T12:48:24.811Z,25
2018-06-22T12:49:15.135Z,24.9
2018-06-22T12:50:05.229Z,25
2018-06-22T12:50:55.013Z,25
2018-06-22T12:51:45.095Z,24.9
2018-06-22T12:52:35.116Z,25
2018-06-22T12:53:25.204Z,24.9
2018-06-22T12:54:15.267Z,24.9
2018-06-22T12:55:05.983Z,24.9
2018-06-22T12:55:54.848Z,24.9
2018-06-22T12:56:44.989Z,24.9
2018-06-22T12:57:35.993Z,24.9
2018-06-22T12:58:26.117Z,24.9
2018-06-22T12:59:16.239Z,24.9
2018-06-22T13:00:05.744Z,24.9
2018-06-22T13:00:56.064Z,24.9
2018-06-22T13:01:46.425Z,24.9
2018-06-22T13:02:36.237Z,24.9
2018-06-22T13:03:25.521Z,24.9
2018-06-22T13:04:15.756Z,24.9
2018-06-22T13:05:05.847Z,24.9
2018-06-22T13:05:55.690Z,24.9
2018-06-22T13:06:46.769Z,24.9
2018-06-22T13:07:36.551Z,24.9
2018-06-22T13:08:25.764Z,24.9
2018-06-22T13:09:17.210Z,24.9
2018-06-22T13:10:06.699Z,24.9
2018-06-22T13:10:56.968Z,24.9
2018-06-22T13:11:47.161Z,24.9
2018-06-22T13:12:37.063Z,24.9
2018-06-22T13:13:26.991Z,24.9
2018-06-22T13:14:16.495Z,25
2018-06-22T13:15:07.091Z,25
2018-06-22T13:15:57.138Z,25
2018-06-22T13:16:46.642Z,25
2018-06-22T13:17:37.012Z,25
2018-06-22T13:18:27.323Z,25
2018-06-22T13:19:17.713Z,25
2018-06-22T13:20:06.679Z,25
2018-06-22T13:20:57.505Z,25
2018-06-22T13:21:47.894Z,25
2018-06-22T13:22:36.831Z,25
2018-06-22T13:23:27.723Z,25
2018-06-22T13:24:18.034Z,25
2018-06-22T13:25:07.884Z,25
2018-06-22T13:25:58.312Z,25
2018-06-22T13:26:48.105Z,25
2018-06-22T13:27:38.061Z,25
2018-06-22T13:28:27.829Z,25
2018-06-22T13:29:18.431Z,25
2018-06-22T13:30:08.269Z,25
2018-06-22T13:30:58.461Z,25
2018-06-22T13:31:48.656Z,25
2018-06-22T13:32:37.877Z,25
2018-06-22T13:33:28.254Z,25
2018-06-22T13:34:18.572Z,25
2018-06-22T13:35:08.629Z,25
2018-06-22T13:35:58.959Z,25
2018-06-22T13:36:48.768Z,25
2018-06-22T13:37:38.554Z,25
2018-06-22T13:38:28.904Z,25
2018-06-22T13:39:18.711Z,25
2018-06-22T13:40:09.021Z,25
2018-06-22T13:40:58.812Z,25
2018-06-22T13:41:48.908Z,25
2018-06-22T13:42:39.487Z,25
2018-06-22T13:43:28.997Z,25
2018-06-22T13:44:19.627Z,25
2018-06-22T13:45:09.690Z,25
2018-06-22T13:45:59.764Z,25
2018-06-22T13:46:48.735Z,25
2018-06-22T13:47:39.066Z,25
2018-06-22T13:48:29.934Z,25
2018-06-22T13:49:20.008Z,25
2018-06-22T13:50:09.973Z,25.1
2018-06-22T13:50:59.294Z,25
2018-06-22T13:51:49.975Z,25
2018-06-22T13:52:40.293Z,25.1
2018-06-22T13:53:30.380Z,25.1
2018-06-22T13:54:20.180Z,25
2018-06-22T13:55:09.690Z,25
2018-06-22T13:55:59.982Z,25
2018-06-22T13:56:51.366Z,25
2018-06-22T13:57:40.342Z,25.1
2018-06-22T13:58:30.161Z,25.1
2018-06-22T13:59:20.228Z,25.1
2018-06-22T14:00:10.629Z,25.1
2018-06-22T14:01:00.423Z,25
2018-06-22T14:01:51.032Z,25
2018-06-22T14:02:40.767Z,25.1
2018-06-22T14:03:30.838Z,25.1
2018-06-22T14:04:21.265Z,25.1
2018-06-22T14:05:10.418Z,25
2018-06-22T14:06:00.773Z,25.1
2018-06-22T14:06:50.847Z,25
2018-06-22T14:07:40.911Z,25.1
2018-06-22T14:08:31.191Z,25.1
2018-06-22T14:09:22.154Z,25.1
2018-06-22T14:10:11.338Z,25.1
2018-06-22T14:11:01.442Z,25.1
2018-06-22T14:11:51.524Z,25
2018-06-22T14:12:41.081Z,25
2018-06-22T14:13:31.585Z,25
2018-06-22T14:14:21.667Z,25
2018-06-22T14:15:11.452Z,25.1
2018-06-22T14:16:01.779Z,25
2018-06-22T14:16:52.135Z,25.1
2018-06-22T14:17:42.211Z,25
2018-06-22T14:18:32.281Z,25.1
2018-06-22T14:19:22.046Z,25.1
2018-06-22T14:20:13.086Z,25.1
2018-06-22T14:21:02.209Z,25.1
2018-06-22T14:21:51.768Z,25
2018-06-22T14:22:41.481Z,25.1
2018-06-22T14:23:32.113Z,25.1
2018-06-22T14:24:22.167Z,25.1
2018-06-22T14:25:12.543Z,25.1
2018-06-22T14:26:02.563Z,25.1
2018-06-22T14:26:52.642Z,25.1
2018-06-22T14:27:42.707Z,25.1
2018-06-22T14:28:32.770Z,25.1
2018-06-22T14:29:22.896Z,25.1
2018-06-22T14:30:13.160Z,25.1
2018-06-22T14:31:03.681Z,25.1
2018-06-22T14:31:53.041Z,25.1
2018-06-22T14:32:42.789Z,25.1
2018-06-22T14:33:33.181Z,25.1
2018-06-22T14:34:23.202Z,25.1
2018-06-22T14:35:12.737Z,25.1
2018-06-22T14:36:03.348Z,25.1
2018-06-22T14:36:53.704Z,25.1
2018-06-22T14:37:42.913Z,25.1
2018-06-22T14:38:33.322Z,25.1
2018-06-22T14:39:23.123Z,25.1
2018-06-22T14:40:13.467Z,25.1
2018-06-22T14:41:03.527Z,25.1
2018-06-22T14:41:53.090Z,25.1
2018-06-22T14:42:42.835Z,25.1
2018-06-22T14:43:34.652Z,25.1
2018-06-22T14:44:23.541Z,25.1
2018-06-22T14:45:13.865Z,25.1
2018-06-22T14:46:03.660Z,25.1
2018-06-22T14:46:53.775Z,25.1
2018-06-22T14:47:43.803Z,25.1
2018-06-22T14:48:33.847Z,25.1
2018-06-22T14:49:24.152Z,25.1
2018-06-22T14:50:13.537Z,25.1
2018-06-22T14:51:04.020Z,25.1